Startpagina
METAR-TAF:

METAR-TAF

Vliegvelden :

San Antonio del Táchira, Venezuela

breedte: 07-51N, lengte: 072-27W, hoogte: 377 m

METAR: ontbreekt

Tijdstip: 14:30 (18:30 UTC)

Verwachting

Dit bericht is 2 uur en het 30 minuten geleden gemaakt, om 16:00 UTC
Verwachting geldig van 19 om 18 UTC tot 20 om 18 UTC
Wind 4 kt uit het zuiden
Zicht 10 km of meer
Verspreide wolken op 1600 ft
Wijzigt naar
van 19 om 18 UTC tot 19 om 22 UTC
Wind 8 kt uit het zuiden
Zicht 10 km of meer
Gebroken wolken op 2000 ft

TAF: SVSA 191600Z 1918/2018 17004KT 9999 SCT016 TX32/1918Z TN23/1808Z BECMG 1918/1922 18008KT 9999 BKN020

Waarnemingen en weersverwachtingen van meer dan 4000 vliegvelden (METAR en TAF).

De beschikbare stations zijn de gele en rode punten op de kaart.

Ga met uw muis naar het station om de naam te zien.

Klik dan om waarnemingen en weersverwachtingen te zien.

kaart wijzigen: klik op de groene knoppen met een zwart kruis om in te zoomen, op de groene knop met een streepje om uit te zoomen of op de groene pijlen voor aangrenzende kaarten.


METAR-TAF: